Time;durP1;ratioP1;P1;durP2;ratioP2;P2;SDS_P1;SDS_P2;PMS_P1;PMS_P2;Temp;Humidity;BMP_temperature;BMP_pressure;BME280_temperature;BME280_humidity;BME280_pressure;Samples;Min_cycle;Max_cycle;Signal;HPM_P1;HPM_P2
2021/08/04 00:00:25;;;;;;;;;;;13.60;84.50;;;;;;3203796;28;29988;-66
2021/08/04 00:02:52;;;;;;;;;;;13.50;84.60;;;;;;3198646;28;28065;-66
2021/08/04 00:05:19;;;;;;;;;;;13.50;84.50;;;;;;3138422;28;36077;-66
2021/08/04 00:07:46;;;;;;;;;;;13.40;83.50;;;;;;3244572;28;65177;-65
2021/08/04 00:10:13;;;;;;;;;;;13.60;84.00;;;;;;3242575;28;54111;-69
2021/08/04 00:12:40;;;;;;;;;;;13.80;83.50;;;;;;3233325;28;87160;-67
2021/08/04 00:15:07;;;;;;;;;;;14.10;82.20;;;;;;3221892;28;62505;-67
2021/08/04 00:17:34;;;;;;;;;;;14.00;82.20;;;;;;3233585;28;66105;-67
2021/08/04 00:20:01;;;;;;;;;;;13.90;82.70;;;;;;3261882;28;46089;-69
2021/08/04 00:22:27;;;;;;;;;;;14.00;80.30;;;;;;3218255;28;29092;-73
2021/08/04 00:24:54;;;;;;;;;;;14.10;80.20;;;;;;3112878;28;28983;-68
2021/08/04 00:27:20;;;;;;;;;;;14.20;80.90;;;;;;3172232;28;34635;-70
2021/08/04 00:29:47;;;;;;;;;;;14.20;80.40;;;;;;3181837;28;29928;-68
2021/08/04 00:32:14;;;;;;;;;;;14.20;79.60;;;;;;3175699;28;49103;-67
2021/08/04 00:34:40;;;;;;;;;;;14.30;80.20;;;;;;3220759;28;28117;-68
2021/08/04 00:37:07;;;;;;;;;;;14.30;79.80;;;;;;3252609;28;26954;-69
2021/08/04 00:39:34;;;;;;;;;;;14.50;79.80;;;;;;3295765;28;28080;-67
2021/08/04 00:42:00;;;;;;;;;;;14.70;77.80;;;;;;3278419;28;27101;-66
2021/08/04 00:44:27;;;;;;;;;;;14.80;77.50;;;;;;3273885;28;28082;-67
2021/08/04 00:46:54;;;;;;;;;;;14.80;77.20;;;;;;3288272;28;28060;-70
2021/08/04 00:49:20;;;;;;;;;;;14.80;77.00;;;;;;3262301;28;29064;-70
2021/08/04 00:51:47;;;;;;;;;;;14.80;76.70;;;;;;3321455;28;28072;-67
2021/08/04 00:54:14;;;;;;;;;;;14.70;76.60;;;;;;3302869;28;27070;-68
2021/08/04 00:56:41;;;;;;;;;;;14.70;76.70;;;;;;3257821;28;29056;-69
2021/08/04 00:59:08;;;;;;;;;;;14.70;75.50;;;;;;3290550;28;32160;-69
2021/08/04 01:01:38;;;;;;;;;;;14.80;76.60;;;;;;3335262;28;28364;-70
2021/08/04 01:04:07;;;;;;;;;;;14.90;76.20;;;;;;3317450;28;26900;-67
2021/08/04 01:06:37;;;;;;;;;;;15.00;76.50;;;;;;3336163;28;28599;-67
2021/08/04 01:09:04;;;;;;;;;;;15.00;74.80;;;;;;3350620;28;29057;-69
2021/08/04 01:11:35;;;;;;;;;;;14.90;75.40;;;;;;3319529;28;28851;-68
2021/08/04 01:14:05;;;;;;;;;;;15.10;75.10;;;;;;3261344;28;28077;-68
2021/08/04 01:16:37;;;;;;;;;;;15.40;74.90;;;;;;3206494;28;28042;-69
2021/08/04 01:19:15;;;;;;;;;;;15.60;74.10;;;;;;3171682;28;29069;-68
2021/08/04 01:22:07;;;;;;;;;;;15.80;73.70;;;;;;3204896;28;29112;-71
2021/08/04 01:24:52;;;;;;;;;;;15.50;73.10;;;;;;3204801;28;29153;-72
2021/08/04 01:27:20;;;;;;;;;;;15.00;74.40;;;;;;3209973;28;28950;-69
2021/08/04 01:29:48;;;;;;;;;;;15.00;74.50;;;;;;3230580;28;28053;-70
2021/08/04 01:32:14;;;;;;;;;;;15.50;73.30;;;;;;3275261;28;45142;-70
2021/08/04 01:34:41;;;;;;;;;;;15.70;71.80;;;;;;3140547;28;28061;-70
2021/08/04 01:37:09;;;;;;;;;;;15.50;71.10;;;;;;3124348;28;29869;-71
2021/08/04 01:39:35;;;;;;;;;;;15.50;70.80;;;;;;3116211;28;28997;-71
2021/08/04 01:42:03;;;;;;;;;;;15.50;70.00;;;;;;3096010;28;29123;-69
2021/08/04 01:44:32;;;;;;;;;;;15.40;71.00;;;;;;3160059;28;29120;-67
2021/08/04 01:46:59;;;;;;;;;;;15.70;70.20;;;;;;3169498;28;29698;-68
2021/08/04 01:49:29;;;;;;;;;;;16.00;69.30;;;;;;3191504;28;27068;-68
2021/08/04 01:51:56;;;;;;;;;;;16.20;69.20;;;;;;3176056;28;33802;-66
2021/08/04 01:54:24;;;;;;;;;;;16.30;69.50;;;;;;3240591;28;32134;-67
2021/08/04 01:56:51;;;;;;;;;;;16.00;69.50;;;;;;3275867;28;29958;-70
2021/08/04 01:59:21;;;;;;;;;;;16.10;69.30;;;;;;3280810;28;28082;-67
2021/08/04 02:01:48;;;;;;;;;;;16.30;69.50;;;;;;3291035;28;27332;-69
2021/08/04 02:04:14;;;;;;;;;;;16.20;67.90;;;;;;3278159;28;48099;-67
2021/08/04 02:06:53;;;;;;;;;;;16.10;67.90;;;;;;3286094;28;31083;-70
2021/08/04 02:09:27;;;;;;;;;;;16.00;68.10;;;;;;3293169;28;28086;-70
2021/08/04 02:12:10;;;;;;;;;;;16.10;68.10;;;;;;3237390;28;30161;-69
2021/08/04 02:14:43;;;;;;;;;;;16.10;68.70;;;;;;3246854;28;28589;-68
2021/08/04 02:17:12;;;;;;;;;;;16.30;68.10;;;;;;3262581;28;33068;-68
2021/08/04 02:19:39;;;;;;;;;;;16.10;68.20;;;;;;3261584;28;32056;-66
2021/08/04 02:22:12;;;;;;;;;;;16.30;68.90;;;;;;3264072;28;29857;-67
2021/08/04 02:24:41;;;;;;;;;;;16.40;67.80;;;;;;3210086;28;28054;-68
2021/08/04 02:27:08;;;;;;;;;;;16.40;67.70;;;;;;3263820;28;37115;-69
2021/08/04 02:29:53;;;;;;;;;;;16.50;68.00;;;;;;3247736;27;33654;-67
2021/08/04 02:32:20;;;;;;;;;;;16.60;68.20;;;;;;3250748;28;38150;-68
2021/08/04 02:34:47;;;;;;;;;;;16.80;68.10;;;;;;3250743;28;31125;-68
2021/08/04 02:37:14;;;;;;;;;;;16.60;67.30;;;;;;3237070;28;29078;-67
2021/08/04 02:39:40;;;;;;;;;;;16.40;66.90;;;;;;3229081;28;29148;-69
2021/08/04 02:42:07;;;;;;;;;;;16.50;67.90;;;;;;3172676;28;27295;-68
2021/08/04 02:44:34;;;;;;;;;;;16.30;67.50;;;;;;3178254;28;29617;-67
2021/08/04 02:47:01;;;;;;;;;;;16.30;67.80;;;;;;3150678;28;29571;-70
2021/08/04 02:49:27;;;;;;;;;;;16.30;67.20;;;;;;3146349;28;27090;-68
2021/08/04 02:51:55;;;;;;;;;;;16.40;68.20;;;;;;3172013;28;28071;-70
2021/08/04 02:54:21;;;;;;;;;;;16.40;67.60;;;;;;3172837;28;28086;-70
2021/08/04 02:56:48;;;;;;;;;;;16.40;68.10;;;;;;3179042;28;28881;-73
2021/08/04 02:59:15;;;;;;;;;;;16.30;67.90;;;;;;3233693;28;46350;-69
2021/08/04 03:01:41;;;;;;;;;;;16.70;68.10;;;;;;3219727;28;29690;-67
2021/08/04 03:04:08;;;;;;;;;;;16.90;67.70;;;;;;3192309;28;29696;-66
2021/08/04 03:06:35;;;;;;;;;;;16.80;67.30;;;;;;3169593;28;29803;-69
2021/08/04 03:09:02;;;;;;;;;;;17.10;67.70;;;;;;3196270;28;28129;-70
2021/08/04 03:11:28;;;;;;;;;;;16.60;68.40;;;;;;3185516;28;38964;-69
2021/08/04 03:13:55;;;;;;;;;;;16.80;68.00;;;;;;3169868;28;36129;-69
2021/08/04 03:16:22;;;;;;;;;;;16.60;68.40;;;;;;3179976;28;48096;-70
2021/08/04 03:18:49;;;;;;;;;;;16.70;69.20;;;;;;3180025;28;34598;-70
2021/08/04 03:21:16;;;;;;;;;;;15.20;66.70;;;;;;3182383;28;38166;-70
2021/08/04 03:23:42;;;;;;;;;;;16.80;67.80;;;;;;3193218;28;46446;-70
2021/08/04 03:26:09;;;;;;;;;;;17.00;67.50;;;;;;3168210;28;36066;-70
2021/08/04 03:28:36;;;;;;;;;;;17.00;67.50;;;;;;3198314;28;34582;-68
2021/08/04 03:31:02;;;;;;;;;;;17.30;68.50;;;;;;3215535;28;50719;-69
2021/08/04 03:33:29;;;;;;;;;;;17.40;66.70;;;;;;3198165;28;28081;-68
2021/08/04 03:35:56;;;;;;;;;;;17.00;67.50;;;;;;3165824;28;30070;-67
2021/08/04 03:38:22;;;;;;;;;;;17.00;67.20;;;;;;3188806;28;33063;-68
2021/08/04 03:40:49;;;;;;;;;;;17.10;68.50;;;;;;3172413;28;36075;-68
2021/08/04 03:43:15;;;;;;;;;;;17.10;67.50;;;;;;3194824;28;32145;-66
2021/08/04 03:45:42;;;;;;;;;;;17.20;68.20;;;;;;3184962;28;32150;-69
2021/08/04 03:48:09;;;;;;;;;;;17.40;68.20;;;;;;3157095;28;29807;-66
2021/08/04 03:50:35;;;;;;;;;;;17.50;67.40;;;;;;3145611;28;27353;-68
2021/08/04 03:53:02;;;;;;;;;;;17.60;67.10;;;;;;3126775;28;29926;-68
2021/08/04 03:55:29;;;;;;;;;;;17.70;67.60;;;;;;3122392;28;28104;-67
2021/08/04 03:57:55;;;;;;;;;;;17.50;67.70;;;;;;3099960;28;38771;-67
2021/08/04 04:00:22;;;;;;;;;;;17.60;67.70;;;;;;3102059;28;33053;-67
2021/08/04 04:02:49;;;;;;;;;;;17.90;67.80;;;;;;3135733;28;28138;-68
2021/08/04 04:05:15;;;;;;;;;;;17.80;67.80;;;;;;3276428;28;28499;-66
2021/08/04 04:07:42;;;;;;;;;;;17.50;67.40;;;;;;3162398;28;27220;-66
2021/08/04 04:10:09;;;;;;;;;;;17.30;68.40;;;;;;3153197;28;29059;-67
2021/08/04 04:12:36;;;;;;;;;;;17.30;68.40;;;;;;3143102;28;33132;-66
2021/08/04 04:17:45;;;;;;;;;;;17.30;68.50;;;;;;2870370;27;81095;-68
2021/08/04 04:20:12;;;;;;;;;;;17.00;68.80;;;;;;2925983;28;44146;-66
2021/08/04 04:22:43;;;;;;;;;;;17.00;68.80;;;;;;2911088;28;73159;-68
2021/08/04 04:25:14;;;;;;;;;;;16.80;68.60;;;;;;2993580;28;64130;-68
2021/08/04 04:27:41;;;;;;;;;;;16.90;68.30;;;;;;3022271;28;57075;-67
2021/08/04 04:30:08;;;;;;;;;;;17.10;68.70;;;;;;3049607;28;62097;-67
2021/08/04 04:32:35;;;;;;;;;;;16.90;68.00;;;;;;2906887;28;87114;-66
2021/08/04 04:35:02;;;;;;;;;;;17.30;68.00;;;;;;2813140;28;112173;-66
2021/08/04 04:37:29;;;;;;;;;;;17.60;67.50;;;;;;2859501;28;109162;-72
2021/08/04 04:39:55;;;;;;;;;;;17.60;67.70;;;;;;2818964;28;89157;-67
2021/08/04 04:42:22;;;;;;;;;;;17.50;67.70;;;;;;2768783;28;171055;-67
2021/08/04 04:44:49;;;;;;;;;;;17.50;68.10;;;;;;2777070;28;146156;-68
2021/08/04 04:47:16;;;;;;;;;;;17.30;68.10;;;;;;2809954;28;68160;-69
2021/08/04 04:49:42;;;;;;;;;;;17.30;67.70;;;;;;2838848;28;139166;-67
2021/08/04 04:52:09;;;;;;;;;;;17.40;68.00;;;;;;2901039;28;129166;-69
2021/08/04 04:54:36;;;;;;;;;;;17.50;68.00;;;;;;2946171;28;125163;-68
2021/08/04 04:57:02;;;;;;;;;;;17.40;67.70;;;;;;2982928;28;154157;-68
2021/08/04 04:59:29;;;;;;;;;;;17.20;68.30;;;;;;3040624;28;73093;-68
2021/08/04 05:01:56;;;;;;;;;;;17.10;68.40;;;;;;3060604;28;73096;-67
2021/08/04 05:04:23;;;;;;;;;;;17.20;68.20;;;;;;2967462;28;94634;-69
2021/08/04 05:06:49;;;;;;;;;;;17.60;67.80;;;;;;2976139;28;61785;-67
2021/08/04 05:09:16;;;;;;;;;;;17.90;67.30;;;;;;2997363;28;33876;-67
2021/08/04 05:11:43;;;;;;;;;;;18.20;67.80;;;;;;3014659;28;87539;-70
2021/08/04 05:14:09;;;;;;;;;;;17.80;67.80;;;;;;2991019;28;54365;-69
2021/08/04 05:16:36;;;;;;;;;;;17.80;66.40;;;;;;2973835;28;66047;-72
2021/08/04 05:19:03;;;;;;;;;;;17.50;67.90;;;;;;2981917;28;51091;-72
2021/08/04 05:21:29;;;;;;;;;;;17.60;67.10;;;;;;2953983;28;60162;-69
2021/08/04 05:23:56;;;;;;;;;;;17.40;68.00;;;;;;2951742;28;49126;-72
2021/08/04 05:26:23;;;;;;;;;;;17.60;67.60;;;;;;2907603;28;51003;-68
2021/08/04 05:28:51;;;;;;;;;;;17.90;67.50;;;;;;2956058;28;74755;-69
2021/08/04 05:31:18;;;;;;;;;;;18.00;67.10;;;;;;2980825;28;46013;-67
2021/08/04 05:33:45;;;;;;;;;;;18.00;66.60;;;;;;2976861;28;70151;-68
2021/08/04 05:36:12;;;;;;;;;;;17.90;68.30;;;;;;2947689;28;49127;-67
2021/08/04 05:38:38;;;;;;;;;;;18.00;67.70;;;;;;2924252;28;50281;-68
2021/08/04 05:41:05;;;;;;;;;;;17.60;68.10;;;;;;2927783;28;50588;-67
2021/08/04 05:43:32;;;;;;;;;;;17.10;69.10;;;;;;3022155;28;48053;-68
2021/08/04 05:45:58;;;;;;;;;;;17.20;69.00;;;;;;3053771;28;42597;-69
2021/08/04 05:48:25;;;;;;;;;;;17.20;69.20;;;;;;3060916;28;54882;-69
2021/08/04 05:50:52;;;;;;;;;;;17.10;69.40;;;;;;3011006;28;48070;-66
2021/08/04 05:53:18;;;;;;;;;;;16.90;69.90;;;;;;2983070;28;63165;-67
2021/08/04 05:55:45;;;;;;;;;;;16.90;70.20;;;;;;2987190;28;40073;-66
2021/08/04 05:58:12;;;;;;;;;;;17.00;71.20;;;;;;2969516;28;54983;-68
2021/08/04 06:00:39;;;;;;;;;;;17.20;70.30;;;;;;3003310;28;59093;-67
2021/08/04 06:03:05;;;;;;;;;;;17.00;70.50;;;;;;2998609;28;57116;-67
2021/08/04 06:05:32;;;;;;;;;;;16.50;71.30;;;;;;2968490;28;36066;-69
2021/08/04 06:07:59;;;;;;;;;;;16.60;71.90;;;;;;2978243;28;50650;-68
2021/08/04 06:10:25;;;;;;;;;;;16.80;71.50;;;;;;3011662;28;50527;-67
2021/08/04 06:12:52;;;;;;;;;;;16.80;72.40;;;;;;3037313;28;38867;-68
2021/08/04 06:15:19;;;;;;;;;;;16.50;71.70;;;;;;3069186;28;30913;-66
2021/08/04 06:17:46;;;;;;;;;;;16.20;72.30;;;;;;3045017;28;62056;-68
2021/08/04 06:20:12;;;;;;;;;;;15.80;73.20;;;;;;3030837;28;29061;-72
2021/08/04 06:22:39;;;;;;;;;;;15.40;74.30;;;;;;2955911;28;61104;-72
2021/08/04 06:25:06;;;;;;;;;;;15.30;75.30;;;;;;2980588;28;54146;-69
2021/08/04 06:27:32;;;;;;;;;;;15.20;75.30;;;;;;3033720;28;55127;-72
2021/08/04 06:29:59;;;;;;;;;;;15.10;75.50;;;;;;3044231;28;49065;-69
2021/08/04 06:32:26;;;;;;;;;;;14.90;75.90;;;;;;3035753;28;35020;-69
2021/08/04 06:34:52;;;;;;;;;;;14.90;76.30;;;;;;3039726;28;40068;-67
2021/08/04 06:37:19;;;;;;;;;;;14.80;76.80;;;;;;3062294;28;50142;-70
2021/08/04 06:39:46;;;;;;;;;;;14.80;76.80;;;;;;3064332;28;55954;-69
2021/08/04 06:42:13;;;;;;;;;;;14.70;76.60;;;;;;3084220;28;29074;-68
2021/08/04 06:44:40;;;;;;;;;;;14.60;77.00;;;;;;3142603;28;42772;-68
2021/08/04 06:47:07;;;;;;;;;;;14.50;77.50;;;;;;3136489;28;46781;-69
2021/08/04 06:49:33;;;;;;;;;;;14.60;77.80;;;;;;3135293;28;42687;-68
2021/08/04 06:52:00;;;;;;;;;;;14.50;78.70;;;;;;3143202;28;41086;-68
2021/08/04 06:54:27;;;;;;;;;;;14.50;78.60;;;;;;3143028;28;28121;-71
2021/08/04 06:56:53;;;;;;;;;;;14.40;78.80;;;;;;3166800;28;46054;-68
2021/08/04 06:59:20;;;;;;;;;;;14.40;78.90;;;;;;3182065;28;61134;-67
2021/08/04 07:01:47;;;;;;;;;;;14.30;79.20;;;;;;3194532;28;42073;-67
2021/08/04 07:04:14;;;;;;;;;;;14.20;79.20;;;;;;3092906;28;158157;-69
2021/08/04 07:07:00;;;;;;;;;;;14.20;79.80;;;;;;2935838;28;85820;-67
2021/08/04 07:09:27;;;;;;;;;;;14.10;79.90;;;;;;2970601;28;98124;-68
2021/08/04 07:11:54;;;;;;;;;;;14.10;80.20;;;;;;3037716;28;50782;-70
2021/08/04 07:14:21;;;;;;;;;;;14.00;80.40;;;;;;3072879;28;94106;-71
2021/08/04 07:16:48;;;;;;;;;;;14.00;80.80;;;;;;3073888;28;49118;-70
2021/08/04 07:19:15;;;;;;;;;;;14.00;81.00;;;;;;3091819;28;54074;-69
2021/08/04 07:21:42;;;;;;;;;;;13.90;81.90;;;;;;3111986;28;60139;-69
2021/08/04 07:24:09;;;;;;;;;;;13.90;82.00;;;;;;3115492;28;62165;-65
2021/08/04 07:26:37;;;;;;;;;;;13.80;81.60;;;;;;3118426;28;58836;-67
2021/08/04 07:29:04;;;;;;;;;;;13.80;81.60;;;;;;3314254;28;36151;-67
2021/08/04 07:31:31;;;;;;;;;;;13.80;81.60;;;;;;3311893;28;54816;-69
2021/08/04 07:33:58;;;;;;;;;;;13.70;81.90;;;;;;3311951;28;41099;-68
2021/08/04 07:36:24;;;;;;;;;;;13.70;82.10;;;;;;3295426;28;50109;-71
2021/08/04 07:38:51;;;;;;;;;;;13.70;82.20;;;;;;3296668;28;49105;-70
2021/08/04 07:41:18;;;;;;;;;;;13.70;82.50;;;;;;3283027;28;49144;-70
2021/08/04 07:43:44;;;;;;;;;;;13.70;82.50;;;;;;3242700;28;46739;-70
2021/08/04 07:46:12;;;;;;;;;;;13.60;82.80;;;;;;3238742;28;44107;-72
2021/08/04 07:48:41;;;;;;;;;;;13.60;83.10;;;;;;3271954;28;38061;-68
2021/08/04 07:51:08;;;;;;;;;;;13.50;83.50;;;;;;3272475;28;38155;-67
2021/08/04 07:53:35;;;;;;;;;;;13.50;83.90;;;;;;3280953;28;36072;-67
2021/08/04 07:56:01;;;;;;;;;;;13.40;83.40;;;;;;3293391;28;38142;-68
2021/08/04 07:58:28;;;;;;;;;;;13.40;83.90;;;;;;3309580;28;46086;-67
2021/08/04 08:00:55;;;;;;;;;;;13.30;84.10;;;;;;3292619;28;36078;-66
2021/08/04 08:03:22;;;;;;;;;;;13.30;84.30;;;;;;3286654;28;35060;-67
2021/08/04 08:05:48;;;;;;;;;;;13.40;84.30;;;;;;3288947;28;32094;-67
2021/08/04 08:08:15;;;;;;;;;;;13.30;84.30;;;;;;3294991;28;59133;-69
2021/08/04 08:10:43;;;;;;;;;;;13.30;84.40;;;;;;3281251;28;59075;-67
2021/08/04 08:13:10;;;;;;;;;;;13.30;84.60;;;;;;3267805;28;29058;-66
2021/08/04 08:15:37;;;;;;;;;;;13.30;84.70;;;;;;3262963;28;38751;-68
2021/08/04 08:18:10;;;;;;;;;;;13.30;84.80;;;;;;3250492;28;38665;-66
2021/08/04 08:20:37;;;;;;;;;;;13.20;85.10;;;;;;3248315;28;37072;-68
2021/08/04 08:23:03;;;;;;;;;;;13.20;85.70;;;;;;3254470;28;47131;-68
2021/08/04 08:25:30;;;;;;;;;;;13.10;85.80;;;;;;3233507;28;34065;-67
2021/08/04 08:27:57;;;;;;;;;;;13.10;85.90;;;;;;3248263;28;35041;-68
2021/08/04 08:30:24;;;;;;;;;;;13.10;85.90;;;;;;3253901;28;43745;-69
2021/08/04 08:32:53;;;;;;;;;;;13.10;86.30;;;;;;3232796;28;34429;-70
2021/08/04 08:35:20;;;;;;;;;;;13.10;86.50;;;;;;3237713;28;41087;-70
2021/08/04 08:37:48;;;;;;;;;;;13.00;86.60;;;;;;3237274;28;37104;-70
2021/08/04 08:40:15;;;;;;;;;;;13.00;86.70;;;;;;3214109;28;37141;-69
2021/08/04 08:42:43;;;;;;;;;;;13.00;87.00;;;;;;3227896;28;42145;-72
2021/08/04 08:45:10;;;;;;;;;;;12.90;87.50;;;;;;3232090;28;38047;-69
2021/08/04 08:47:40;;;;;;;;;;;12.90;87.50;;;;;;3243638;28;42866;-70
2021/08/04 08:50:07;;;;;;;;;;;12.90;87.50;;;;;;3238219;28;42144;-72
2021/08/04 08:52:34;;;;;;;;;;;12.90;87.80;;;;;;3255433;28;55156;-68
2021/08/04 08:55:02;;;;;;;;;;;12.90;88.10;;;;;;3220894;28;58156;-67
2021/08/04 08:57:29;;;;;;;;;;;12.80;88.20;;;;;;3214520;28;38626;-71
2021/08/04 08:59:57;;;;;;;;;;;12.80;88.40;;;;;;3195978;28;38806;-67
2021/08/04 09:02:27;;;;;;;;;;;12.80;89.00;;;;;;3226081;28;41099;-67
2021/08/04 09:05:01;;;;;;;;;;;12.80;89.30;;;;;;3231029;28;34068;-67
2021/08/04 09:07:33;;;;;;;;;;;12.70;89.50;;;;;;3266924;28;36281;-71
2021/08/04 09:10:01;;;;;;;;;;;12.70;88.90;;;;;;3284275;28;38711;-69
2021/08/04 09:12:27;;;;;;;;;;;12.70;89.10;;;;;;3292250;28;41153;-70
2021/08/04 09:14:54;;;;;;;;;;;12.70;89.40;;;;;;3377466;28;27059;-70
2021/08/04 09:17:21;;;;;;;;;;;12.70;90.00;;;;;;3270736;28;30074;-67
2021/08/04 09:19:49;;;;;;;;;;;12.70;90.00;;;;;;3238129;28;34086;-71
2021/08/04 09:22:22;;;;;;;;;;;12.60;90.00;;;;;;3216186;28;42064;-69
2021/08/04 09:25:01;;;;;;;;;;;12.60;90.10;;;;;;3213492;28;34063;-67
2021/08/04 09:27:45;;;;;;;;;;;12.60;90.20;;;;;;3216373;28;28082;-69
2021/08/04 09:30:14;;;;;;;;;;;12.60;90.10;;;;;;3217077;28;26647;-69
2021/08/04 09:32:40;;;;;;;;;;;12.70;90.00;;;;;;3221948;28;31600;-72
2021/08/04 09:35:10;;;;;;;;;;;12.60;90.10;;;;;;3206543;28;34058;-70
2021/08/04 09:37:37;;;;;;;;;;;12.60;90.20;;;;;;3218875;28;33083;-70
2021/08/04 09:40:04;;;;;;;;;;;12.60;90.30;;;;;;3226988;28;34091;-70
2021/08/04 09:42:49;;;;;;;;;;;12.50;90.40;;;;;;3233596;28;43071;-66
2021/08/04 09:45:17;;;;;;;;;;;12.60;90.40;;;;;;3241312;28;35058;-69
2021/08/04 09:47:56;;;;;;;;;;;12.50;90.80;;;;;;3260639;28;38062;-72
2021/08/04 09:50:23;;;;;;;;;;;12.50;90.50;;;;;;3263656;28;27680;-71
2021/08/04 09:52:53;;;;;;;;;;;12.50;90.90;;;;;;3261971;28;40015;-70
2021/08/04 09:55:21;;;;;;;;;;;12.50;90.80;;;;;;3258409;28;35741;-68
2021/08/04 09:57:48;;;;;;;;;;;12.50;90.80;;;;;;3270064;28;38147;-68
2021/08/04 10:00:16;;;;;;;;;;;12.50;90.80;;;;;;3272125;28;34137;-68
2021/08/04 10:02:46;;;;;;;;;;;12.50;91.00;;;;;;3283492;28;37126;-69
2021/08/04 10:05:20;;;;;;;;;;;12.50;91.10;;;;;;3259904;28;29104;-69
2021/08/04 10:08:00;;;;;;;;;;;12.50;91.10;;;;;;3254708;28;33166;-67
2021/08/04 10:10:27;;;;;;;;;;;12.50;91.10;;;;;;3254829;28;33072;-67
2021/08/04 10:12:56;;;;;;;;;;;12.40;91.30;;;;;;3260855;28;37079;-67
2021/08/04 10:15:23;;;;;;;;;;;12.30;91.20;;;;;;3267418;28;37075;-67
2021/08/04 10:17:53;;;;;;;;;;;12.30;91.60;;;;;;3270892;28;35069;-68
2021/08/04 10:20:20;;;;;;;;;;;12.30;91.80;;;;;;3285393;28;26604;-68
2021/08/04 10:22:48;;;;;;;;;;;12.30;91.60;;;;;;3284861;28;39593;-69
2021/08/04 10:25:15;;;;;;;;;;;12.30;91.70;;;;;;3264167;28;43079;-67
2021/08/04 10:27:41;;;;;;;;;;;12.20;91.80;;;;;;3277172;28;34916;-67
2021/08/04 10:30:08;;;;;;;;;;;12.20;92.00;;;;;;3290426;28;28066;-66
2021/08/04 10:32:35;;;;;;;;;;;12.10;92.00;;;;;;3281467;28;29052;-68
2021/08/04 10:37:47;;;;;;;;;;;12.10;92.20;;;;;;3276911;27;39092;-66
2021/08/04 10:40:14;;;;;;;;;;;12.10;92.20;;;;;;3280675;28;39148;-66
2021/08/04 10:42:42;;;;;;;;;;;12.10;92.20;;;;;;3287111;28;35084;-68
2021/08/04 10:45:23;;;;;;;;;;;12.00;92.60;;;;;;3292402;28;32120;-68
2021/08/04 10:48:08;;;;;;;;;;;12.00;92.50;;;;;;3306896;28;33076;-68
2021/08/04 10:50:35;;;;;;;;;;;12.00;92.80;;;;;;3325153;28;39804;-66
2021/08/04 10:53:02;;;;;;;;;;;11.90;92.60;;;;;;3303216;28;43082;-69
2021/08/04 10:55:30;;;;;;;;;;;11.80;92.90;;;;;;3291876;28;35274;-67
2021/08/04 10:58:06;;;;;;;;;;;11.90;92.90;;;;;;3287647;28;26649;-68
2021/08/04 11:00:33;;;;;;;;;;;11.90;92.80;;;;;;3290412;28;33126;-67
2021/08/04 11:03:00;;;;;;;;;;;11.90;93.10;;;;;;3284027;28;31776;-68
2021/08/04 11:06:03;;;;;;;;;;;11.90;93.30;;;;;;3298736;27;31744;-65
2021/08/04 11:08:30;;;;;;;;;;;11.90;93.00;;;;;;3318029;28;31082;-66
2021/08/04 11:10:57;;;;;;;;;;;11.90;93.00;;;;;;3323841;28;31716;-67
2021/08/04 11:13:58;;;;;;;;;;;11.90;93.00;;;;;;3304647;28;34103;-65
2021/08/04 11:16:26;;;;;;;;;;;11.90;93.00;;;;;;3258990;28;30088;-66
2021/08/04 11:19:04;;;;;;;;;;;12.00;93.00;;;;;;3297478;28;29085;-67
2021/08/04 11:21:31;;;;;;;;;;;12.00;93.10;;;;;;3311624;28;42095;-67
2021/08/04 11:23:59;;;;;;;;;;;11.90;93.20;;;;;;3306108;28;26829;-66
2021/08/04 11:26:30;;;;;;;;;;;11.90;93.20;;;;;;3317280;28;26547;-67
2021/08/04 11:28:58;;;;;;;;;;;12.00;93.10;;;;;;3323658;28;27597;-67
2021/08/04 11:31:25;;;;;;;;;;;12.00;93.10;;;;;;3320891;28;39068;-67
2021/08/04 11:33:52;;;;;;;;;;;12.00;93.00;;;;;;3317219;28;31055;-66
2021/08/04 11:36:21;;;;;;;;;;;12.10;93.00;;;;;;3314079;28;38151;-70
2021/08/04 11:38:51;;;;;;;;;;;12.10;93.10;;;;;;3313410;28;39148;-67
2021/08/04 11:41:18;;;;;;;;;;;12.00;93.10;;;;;;3316557;28;39832;-67
2021/08/04 11:43:45;;;;;;;;;;;12.10;93.10;;;;;;3324486;28;35098;-69
2021/08/04 11:46:28;;;;;;;;;;;12.10;93.10;;;;;;3330468;28;30070;-69
2021/08/04 11:48:54;;;;;;;;;;;12.10;93.10;;;;;;3327392;28;31074;-68
2021/08/04 11:51:31;;;;;;;;;;;12.10;93.10;;;;;;3317822;28;44910;-66
2021/08/04 11:53:58;;;;;;;;;;;12.10;93.10;;;;;;3315221;28;38069;-67
2021/08/04 11:56:25;;;;;;;;;;;12.10;93.40;;;;;;3321095;28;29073;-66
2021/08/04 11:58:51;;;;;;;;;;;12.10;93.20;;;;;;3318913;28;38114;-66
2021/08/04 12:01:18;;;;;;;;;;;12.10;93.30;;;;;;3310365;28;37065;-69
2021/08/04 12:03:45;;;;;;;;;;;12.10;93.20;;;;;;3310373;28;31047;-68
2021/08/04 12:06:16;;;;;;;;;;;12.10;93.40;;;;;;3340424;28;35521;-66
2021/08/04 12:08:43;;;;;;;;;;;12.10;93.10;;;;;;3339744;28;33062;-67
2021/08/04 12:11:10;;;;;;;;;;;12.10;93.40;;;;;;3327947;28;35484;-65
2021/08/04 12:13:37;;;;;;;;;;;12.10;93.40;;;;;;3310138;28;34063;-66
2021/08/04 12:16:03;;;;;;;;;;;12.00;93.50;;;;;;3295461;28;34136;-66
2021/08/04 12:18:30;;;;;;;;;;;12.00;93.50;;;;;;3304944;28;31033;-65
2021/08/04 12:20:57;;;;;;;;;;;12.00;93.60;;;;;;3309636;28;35093;-67
2021/08/04 12:23:24;;;;;;;;;;;12.00;93.60;;;;;;3304164;28;35120;-67
2021/08/04 12:26:01;;;;;;;;;;;11.90;93.60;;;;;;3313702;28;34159;-66
2021/08/04 12:28:31;;;;;;;;;;;11.90;93.70;;;;;;3312610;28;30113;-67
2021/08/04 12:30:58;;;;;;;;;;;11.90;93.80;;;;;;3301321;28;30117;-65
2021/08/04 12:33:34;;;;;;;;;;;11.90;93.90;;;;;;3296127;28;38139;-64
2021/08/04 12:38:47;;;;;;;;;;;11.80;94.00;;;;;;3309838;28;39672;-66
2021/08/04 12:41:18;;;;;;;;;;;11.80;94.00;;;;;;3297406;28;33112;-67
2021/08/04 12:43:45;;;;;;;;;;;11.80;94.10;;;;;;3300038;28;26905;-66
2021/08/04 12:46:12;;;;;;;;;;;11.80;94.10;;;;;;3304194;28;35150;-65
2021/08/04 12:48:40;;;;;;;;;;;11.70;94.20;;;;;;3298757;28;31747;-66
2021/08/04 12:51:10;;;;;;;;;;;11.70;94.10;;;;;;3297919;28;30105;-66
2021/08/04 12:53:38;;;;;;;;;;;11.70;94.30;;;;;;3301681;28;38145;-65
2021/08/04 12:56:06;;;;;;;;;;;11.80;94.20;;;;;;3300427;28;33142;-66
2021/08/04 12:58:51;;;;;;;;;;;11.70;94.20;;;;;;3302603;28;35494;-66
2021/08/04 13:01:20;;;;;;;;;;;11.80;94.20;;;;;;3294197;28;37156;-65
2021/08/04 13:03:48;;;;;;;;;;;11.80;94.30;;;;;;3308512;28;38101;-66
2021/08/04 13:06:14;;;;;;;;;;;11.70;94.70;;;;;;3311040;28;33111;-66
2021/08/04 13:08:41;;;;;;;;;;;11.70;94.40;;;;;;3306618;28;38070;-66
2021/08/04 13:11:24;;;;;;;;;;;11.60;94.90;;;;;;3302161;28;34091;-66
2021/08/04 13:14:01;;;;;;;;;;;11.50;94.70;;;;;;3303072;28;27874;-66
2021/08/04 13:16:32;;;;;;;;;;;11.50;95.20;;;;;;3300992;28;31905;-66
2021/08/04 13:18:59;;;;;;;;;;;11.40;95.50;;;;;;3309036;28;29061;-68
2021/08/04 13:21:26;;;;;;;;;;;11.30;95.70;;;;;;3300715;28;37071;-67
2021/08/04 13:23:53;;;;;;;;;;;11.30;95.60;;;;;;3302938;28;33112;-68
2021/08/04 13:26:21;;;;;;;;;;;11.20;95.80;;;;;;3310254;28;38069;-67
2021/08/04 13:28:48;;;;;;;;;;;11.20;96.10;;;;;;3308601;28;34127;-66
2021/08/04 13:31:17;;;;;;;;;;;11.10;96.40;;;;;;3304367;28;37047;-67
2021/08/04 13:33:44;;;;;;;;;;;11.00;96.80;;;;;;3306401;28;35086;-67
2021/08/04 13:36:11;;;;;;;;;;;11.00;97.10;;;;;;3314335;28;34063;-66
2021/08/04 13:38:38;;;;;;;;;;;11.00;96.90;;;;;;3316428;28;44169;-66
2021/08/04 13:41:05;;;;;;;;;;;10.90;97.30;;;;;;3304816;28;30102;-66
2021/08/04 13:43:31;;;;;;;;;;;10.90;97.00;;;;;;3310644;28;37052;-66
2021/08/04 13:45:58;;;;;;;;;;;10.90;97.30;;;;;;3313474;28;31398;-66
2021/08/04 13:48:25;;;;;;;;;;;10.80;97.50;;;;;;3307001;28;31052;-67
2021/08/04 13:50:53;;;;;;;;;;;10.80;97.80;;;;;;3305382;28;34896;-66
2021/08/04 13:53:20;;;;;;;;;;;10.80;97.70;;;;;;3315210;28;30067;-66
2021/08/04 13:55:47;;;;;;;;;;;10.80;97.80;;;;;;3309727;28;31026;-67
2021/08/04 13:58:14;;;;;;;;;;;10.70;97.90;;;;;;3307314;28;27731;-66
2021/08/04 14:00:41;;;;;;;;;;;10.70;97.90;;;;;;3322368;28;35106;-66
2021/08/04 14:03:08;;;;;;;;;;;10.70;98.50;;;;;;3332194;28;35074;-66
2021/08/04 14:05:41;;;;;;;;;;;10.60;98.30;;;;;;3334420;28;29062;-66
2021/08/04 14:08:16;;;;;;;;;;;10.60;98.30;;;;;;3330820;28;31530;-66
2021/08/04 14:10:43;;;;;;;;;;;10.70;98.30;;;;;;3320013;28;27060;-67
2021/08/04 14:13:11;;;;;;;;;;;10.70;98.30;;;;;;3337902;28;29098;-66
2021/08/04 14:15:38;;;;;;;;;;;10.60;98.30;;;;;;3331109;28;34066;-66
2021/08/04 14:18:08;;;;;;;;;;;10.60;98.80;;;;;;3330617;28;26836;-66
2021/08/04 14:20:36;;;;;;;;;;;10.60;99.00;;;;;;3323984;28;35076;-67
2021/08/04 14:23:03;;;;;;;;;;;10.60;98.60;;;;;;3317590;28;33093;-67
2021/08/04 14:25:29;;;;;;;;;;;10.60;98.60;;;;;;3328883;28;35810;-66
2021/08/04 14:27:56;;;;;;;;;;;10.70;98.50;;;;;;3323407;28;40234;-67
2021/08/04 14:30:23;;;;;;;;;;;10.60;99.10;;;;;;3323205;28;31824;-66